Terminal Aerodrome Forecast
Issued by NWS Quad Cities IA IL

Home | Current Version | Previous Version | Text Only | Print | Product List | Glossary On
Versions: 1 2 3 4 5 6 7 8 9 10 11 12 13 14 15 16 17 18 19 20 21 22
000
FTUS43 KDVN 181700
TAFMLI
TAF
KMLI 181724Z 1818/1918 11010KT P6SM SCT060 OVC200
     FM190200 10006KT P6SM SCT060 OVC100 PROB30 1903/1907 -SHRA
      BKN050
     FM191100 11005KT 6SM BR OVC050
      TEMPO 1915/1918 5SM SHRA BKN025=

USA.gov is the U.S. government's official web portal to all federal, state and local government web resources and services.